Terminal Aerodrome Forecast
Issued by NWS Charleston, WV

Home | Current Version | Previous Version | Text Only | Print | Product List | Glossary On
Versions: 1 2 3 4 5 6 7 8 9 10 11 12 13 14 15 16 17 18 19 20 21 22 23 24 25 26 27
000
FTUS41 KRLX 291120
TAFEKN
TAF
KEKN 291120Z 2912/3012 11006KT P6SM OVC015
     FM291600 13009KT P6SM SHRA VCTS OVC035CB
     FM292100 11012KT P6SM SHRA VCTS OVC025CB
     FM300100 13009KT 3SM SHRA OVC015
     FM300300 12009KT 2SM SHRA BKN008 OVC015=

USA.gov is the U.S. government's official web portal to all federal, state and local government web resources and services.